Delta Virtual Airport Information Service

Manchester Airport

ICAO: EGCC Country: United Kingdom
Latitude: 53.3537 Longitude: -2.27495
Latest Arrival : EZY1832 (2) (EHAM-EGCC) Latest Departure : EZY137 (3) (EGCC-EGAA)


WX CaptureLIVE
Data provided by noaa.gov | Fetched at 00:13:47

METAR : EGCC 120450Z AUTO VRB02KT 2700 BR BKN001 06/06 Q1006 TEMPO 0300 FG

TAF : EGCC 120227Z 1202/1306 VRB04KT 9999 SCT030 TEMPO 1202/1206 3000 BR BKN008 PROB30 TEMPO 1202/1206 0300 FG BKN001 BECMG 1203/1206 21010KT TEMPO 1210/1220 7000 SHRA BECMG 1211/1214 27005KT PROB30 TEMPO 1212/1218 4000 +SHRA BKN014 BKN025CB


Runway Data for EGCC
Data provided by openaviationdata.com

Runway ID Mag Var Hdg Length Elevation Surface ILS Freq ILS Id ILS Slope
05L -4 55° 9988 ft 257 ft Asphalt 109.5 IMM 3
05R -4 55° 9978 ft 257 ft Asphalt 111.55 IMC 3
23L -4 235° 9978 ft 257 ft Asphalt -- -- --
23R -4 235° 9988 ft 257 ft Asphalt 109.5 INN 3

Manchester Airport, United Kingdom
Use only for reference purposes



Not for navigational purposes.